sensor_id;sensor_type;location;lat;lon;timestamp;temperature;humidity
62575;DHT22;70119;45.638;11.714;2023-08-07T00:00:50;30.40;46.70
62575;DHT22;70119;45.638;11.714;2023-08-07T00:03:16;30.30;46.70
62575;DHT22;70119;45.638;11.714;2023-08-07T00:05:50;30.40;46.70
62575;DHT22;70119;45.638;11.714;2023-08-07T00:08:18;30.30;46.70
62575;DHT22;70119;45.638;11.714;2023-08-07T00:10:44;30.30;46.70
62575;DHT22;70119;45.638;11.714;2023-08-07T00:13:10;30.30;46.80
62575;DHT22;70119;45.638;11.714;2023-08-07T00:15:39;30.30;46.70
62575;DHT22;70119;45.638;11.714;2023-08-07T00:18:05;30.30;46.70
62575;DHT22;70119;45.638;11.714;2023-08-07T00:20:31;30.30;46.80
62575;DHT22;70119;45.638;11.714;2023-08-07T00:22:57;30.30;46.70
62575;DHT22;70119;45.638;11.714;2023-08-07T00:25:22;30.30;46.70
62575;DHT22;70119;45.638;11.714;2023-08-07T00:27:49;30.30;46.70
62575;DHT22;70119;45.638;11.714;2023-08-07T00:30:15;30.30;46.70
62575;DHT22;70119;45.638;11.714;2023-08-07T00:32:40;30.30;46.70
62575;DHT22;70119;45.638;11.714;2023-08-07T00:35:06;30.30;46.70
62575;DHT22;70119;45.638;11.714;2023-08-07T00:37:34;30.20;46.80
62575;DHT22;70119;45.638;11.714;2023-08-07T00:39:59;30.30;46.70
62575;DHT22;70119;45.638;11.714;2023-08-07T00:42:25;30.20;46.70
62575;DHT22;70119;45.638;11.714;2023-08-07T00:44:51;30.20;46.70
62575;DHT22;70119;45.638;11.714;2023-08-07T00:47:17;30.30;46.70
62575;DHT22;70119;45.638;11.714;2023-08-07T00:49:43;30.20;46.70
62575;DHT22;70119;45.638;11.714;2023-08-07T00:52:10;30.20;46.70
62575;DHT22;70119;45.638;11.714;2023-08-07T00:54:37;30.30;46.70
62575;DHT22;70119;45.638;11.714;2023-08-07T00:57:12;30.20;46.60
62575;DHT22;70119;45.638;11.714;2023-08-07T00:59:40;30.30;46.60
62575;DHT22;70119;45.638;11.714;2023-08-07T01:02:07;30.30;46.60
62575;DHT22;70119;45.638;11.714;2023-08-07T01:04:33;30.30;46.60
62575;DHT22;70119;45.638;11.714;2023-08-07T01:06:58;30.30;46.60
62575;DHT22;70119;45.638;11.714;2023-08-07T01:09:24;30.30;46.60
62575;DHT22;70119;45.638;11.714;2023-08-07T01:12:02;30.20;46.60
62575;DHT22;70119;45.638;11.714;2023-08-07T01:14:44;30.30;46.60
62575;DHT22;70119;45.638;11.714;2023-08-07T01:17:15;30.20;46.50
62575;DHT22;70119;45.638;11.714;2023-08-07T01:19:42;30.20;46.60
62575;DHT22;70119;45.638;11.714;2023-08-07T01:22:10;30.30;46.60
62575;DHT22;70119;45.638;11.714;2023-08-07T01:24:38;30.30;46.60
62575;DHT22;70119;45.638;11.714;2023-08-07T01:32:50;30.20;46.60
62575;DHT22;70119;45.638;11.714;2023-08-07T01:35:22;30.20;46.40
62575;DHT22;70119;45.638;11.714;2023-08-07T01:37:53;30.20;46.50
62575;DHT22;70119;45.638;11.714;2023-08-07T01:40:21;30.20;46.50
62575;DHT22;70119;45.638;11.714;2023-08-07T01:42:47;30.20;46.50
62575;DHT22;70119;45.638;11.714;2023-08-07T01:45:13;30.20;46.50
62575;DHT22;70119;45.638;11.714;2023-08-07T01:47:39;30.20;46.50
62575;DHT22;70119;45.638;11.714;2023-08-07T01:50:06;30.20;46.50
62575;DHT22;70119;45.638;11.714;2023-08-07T01:52:32;30.20;46.50
62575;DHT22;70119;45.638;11.714;2023-08-07T01:54:58;30.20;46.50
62575;DHT22;70119;45.638;11.714;2023-08-07T01:57:24;30.20;46.40
62575;DHT22;70119;45.638;11.714;2023-08-07T01:59:51;30.10;46.50
62575;DHT22;70119;45.638;11.714;2023-08-07T02:02:17;30.10;46.50
62575;DHT22;70119;45.638;11.714;2023-08-07T02:04:43;30.10;46.60
62575;DHT22;70119;45.638;11.714;2023-08-07T02:07:09;30.10;46.50
62575;DHT22;70119;45.638;11.714;2023-08-07T02:09:34;30.10;46.50
62575;DHT22;70119;45.638;11.714;2023-08-07T02:12:00;30.10;46.40
62575;DHT22;70119;45.638;11.714;2023-08-07T02:14:27;30.10;46.40
62575;DHT22;70119;45.638;11.714;2023-08-07T02:16:53;30.10;46.50
62575;DHT22;70119;45.638;11.714;2023-08-07T02:19:18;30.20;46.50
62575;DHT22;70119;45.638;11.714;2023-08-07T02:21:44;30.10;46.50
62575;DHT22;70119;45.638;11.714;2023-08-07T02:24:10;30.10;46.50
62575;DHT22;70119;45.638;11.714;2023-08-07T02:26:36;30.10;46.50
62575;DHT22;70119;45.638;11.714;2023-08-07T02:29:02;30.10;46.50
62575;DHT22;70119;45.638;11.714;2023-08-07T02:31:29;30.10;46.60
62575;DHT22;70119;45.638;11.714;2023-08-07T02:33:55;30.10;46.50
62575;DHT22;70119;45.638;11.714;2023-08-07T02:36:21;30.10;46.50
62575;DHT22;70119;45.638;11.714;2023-08-07T02:38:46;30.10;46.60
62575;DHT22;70119;45.638;11.714;2023-08-07T02:41:12;30.10;46.60
62575;DHT22;70119;45.638;11.714;2023-08-07T02:43:38;30.10;46.60
62575;DHT22;70119;45.638;11.714;2023-08-07T02:46:04;30.10;46.60
62575;DHT22;70119;45.638;11.714;2023-08-07T02:48:30;30.10;46.60
62575;DHT22;70119;45.638;11.714;2023-08-07T02:50:56;30.10;46.60
62575;DHT22;70119;45.638;11.714;2023-08-07T02:53:21;30.10;46.60
62575;DHT22;70119;45.638;11.714;2023-08-07T02:55:47;30.10;46.60
62575;DHT22;70119;45.638;11.714;2023-08-07T02:58:13;30.10;46.60
62575;DHT22;70119;45.638;11.714;2023-08-07T03:00:39;30.00;46.60
62575;DHT22;70119;45.638;11.714;2023-08-07T03:03:05;30.00;46.50
62575;DHT22;70119;45.638;11.714;2023-08-07T03:05:31;30.00;46.50
62575;DHT22;70119;45.638;11.714;2023-08-07T03:07:56;30.00;46.60
62575;DHT22;70119;45.638;11.714;2023-08-07T03:10:22;30.00;46.70
62575;DHT22;70119;45.638;11.714;2023-08-07T03:12:48;30.00;46.60
62575;DHT22;70119;45.638;11.714;2023-08-07T03:15:14;30.00;46.70
62575;DHT22;70119;45.638;11.714;2023-08-07T03:17:40;30.00;46.70
62575;DHT22;70119;45.638;11.714;2023-08-07T03:20:06;30.00;46.70
62575;DHT22;70119;45.638;11.714;2023-08-07T03:22:32;30.00;46.70
62575;DHT22;70119;45.638;11.714;2023-08-07T03:24:58;30.00;46.60
62575;DHT22;70119;45.638;11.714;2023-08-07T03:27:24;29.90;46.60
62575;DHT22;70119;45.638;11.714;2023-08-07T03:29:49;29.90;46.70
62575;DHT22;70119;45.638;11.714;2023-08-07T03:32:16;29.90;46.70
62575;DHT22;70119;45.638;11.714;2023-08-07T03:34:42;29.90;46.70
62575;DHT22;70119;45.638;11.714;2023-08-07T03:37:08;29.90;46.70
62575;DHT22;70119;45.638;11.714;2023-08-07T03:39:34;29.90;46.70
62575;DHT22;70119;45.638;11.714;2023-08-07T03:42:00;29.90;46.70
62575;DHT22;70119;45.638;11.714;2023-08-07T03:44:25;29.90;46.60
62575;DHT22;70119;45.638;11.714;2023-08-07T03:46:51;29.90;46.60
62575;DHT22;70119;45.638;11.714;2023-08-07T03:49:17;29.90;46.50
62575;DHT22;70119;45.638;11.714;2023-08-07T03:51:43;29.90;46.50
62575;DHT22;70119;45.638;11.714;2023-08-07T03:54:09;29.90;46.60
62575;DHT22;70119;45.638;11.714;2023-08-07T03:56:35;29.80;46.60
62575;DHT22;70119;45.638;11.714;2023-08-07T03:59:03;29.90;46.60
62575;DHT22;70119;45.638;11.714;2023-08-07T04:01:29;29.90;46.50
62575;DHT22;70119;45.638;11.714;2023-08-07T04:03:55;29.80;46.60
62575;DHT22;70119;45.638;11.714;2023-08-07T04:06:21;29.80;46.50
62575;DHT22;70119;45.638;11.714;2023-08-07T04:08:48;29.80;46.60
62575;DHT22;70119;45.638;11.714;2023-08-07T04:11:15;29.80;46.60
62575;DHT22;70119;45.638;11.714;2023-08-07T04:13:43;29.80;46.50
62575;DHT22;70119;45.638;11.714;2023-08-07T04:16:11;29.80;46.60
62575;DHT22;70119;45.638;11.714;2023-08-07T04:18:39;29.80;46.60
62575;DHT22;70119;45.638;11.714;2023-08-07T04:21:05;29.80;46.60
62575;DHT22;70119;45.638;11.714;2023-08-07T04:23:31;29.80;46.60
62575;DHT22;70119;45.638;11.714;2023-08-07T04:26:01;29.80;46.60
62575;DHT22;70119;45.638;11.714;2023-08-07T04:28:30;29.80;46.60
62575;DHT22;70119;45.638;11.714;2023-08-07T04:30:56;29.80;46.50
62575;DHT22;70119;45.638;11.714;2023-08-07T04:33:22;29.80;46.50
62575;DHT22;70119;45.638;11.714;2023-08-07T04:35:48;29.80;46.60
62575;DHT22;70119;45.638;11.714;2023-08-07T04:38:15;29.80;46.60
62575;DHT22;70119;45.638;11.714;2023-08-07T04:40:49;29.80;46.50
62575;DHT22;70119;45.638;11.714;2023-08-07T04:43:18;29.80;46.20
62575;DHT22;70119;45.638;11.714;2023-08-07T04:45:48;29.80;46.10
62575;DHT22;70119;45.638;11.714;2023-08-07T04:48:14;29.90;45.70
62575;DHT22;70119;45.638;11.714;2023-08-07T04:50:41;29.80;45.60
62575;DHT22;70119;45.638;11.714;2023-08-07T04:53:07;29.80;45.50
62575;DHT22;70119;45.638;11.714;2023-08-07T04:55:33;29.80;45.40
62575;DHT22;70119;45.638;11.714;2023-08-07T04:57:59;29.80;45.00
62575;DHT22;70119;45.638;11.714;2023-08-07T05:00:27;29.90;44.40
62575;DHT22;70119;45.638;11.714;2023-08-07T05:02:55;29.80;44.30
62575;DHT22;70119;45.638;11.714;2023-08-07T05:05:25;29.80;44.20
62575;DHT22;70119;45.638;11.714;2023-08-07T05:07:51;29.80;43.80
62575;DHT22;70119;45.638;11.714;2023-08-07T05:10:17;29.80;43.60
62575;DHT22;70119;45.638;11.714;2023-08-07T05:12:44;29.80;43.60
62575;DHT22;70119;45.638;11.714;2023-08-07T05:15:12;29.80;43.50
62575;DHT22;70119;45.638;11.714;2023-08-07T05:17:43;29.80;43.20
62575;DHT22;70119;45.638;11.714;2023-08-07T05:20:11;29.80;43.00
62575;DHT22;70119;45.638;11.714;2023-08-07T05:22:37;29.80;43.00
62575;DHT22;70119;45.638;11.714;2023-08-07T05:25:04;29.80;42.90
62575;DHT22;70119;45.638;11.714;2023-08-07T05:27:31;29.80;42.80
62575;DHT22;70119;45.638;11.714;2023-08-07T05:30:01;29.80;42.70
62575;DHT22;70119;45.638;11.714;2023-08-07T05:32:28;29.80;42.60
62575;DHT22;70119;45.638;11.714;2023-08-07T05:34:53;29.80;42.60
62575;DHT22;70119;45.638;11.714;2023-08-07T05:37:19;29.80;42.60
62575;DHT22;70119;45.638;11.714;2023-08-07T05:39:46;29.80;42.60
62575;DHT22;70119;45.638;11.714;2023-08-07T05:42:12;29.80;42.70
62575;DHT22;70119;45.638;11.714;2023-08-07T05:44:38;29.80;42.80
62575;DHT22;70119;45.638;11.714;2023-08-07T05:47:05;29.80;42.60
62575;DHT22;70119;45.638;11.714;2023-08-07T05:49:31;29.90;42.90
62575;DHT22;70119;45.638;11.714;2023-08-07T05:51:57;29.90;43.10
62575;DHT22;70119;45.638;11.714;2023-08-07T05:54:23;29.90;43.30
62575;DHT22;70119;45.638;11.714;2023-08-07T05:56:49;29.90;43.60
62575;DHT22;70119;45.638;11.714;2023-08-07T05:59:14;29.90;43.50
62575;DHT22;70119;45.638;11.714;2023-08-07T06:01:41;29.90;43.20
62575;DHT22;70119;45.638;11.714;2023-08-07T06:04:07;29.90;43.00
62575;DHT22;70119;45.638;11.714;2023-08-07T06:06:34;29.90;43.00
62575;DHT22;70119;45.638;11.714;2023-08-07T06:09:02;29.90;42.90
62575;DHT22;70119;45.638;11.714;2023-08-07T06:11:33;30.00;42.70
62575;DHT22;70119;45.638;11.714;2023-08-07T06:13:59;30.00;42.90
62575;DHT22;70119;45.638;11.714;2023-08-07T06:16:25;30.00;43.40
62575;DHT22;70119;45.638;11.714;2023-08-07T06:18:51;30.00;43.60
62575;DHT22;70119;45.638;11.714;2023-08-07T06:21:17;30.00;43.50
62575;DHT22;70119;45.638;11.714;2023-08-07T06:23:43;30.00;43.70
62575;DHT22;70119;45.638;11.714;2023-08-07T06:26:09;30.00;43.70
62575;DHT22;70119;45.638;11.714;2023-08-07T06:28:35;30.00;43.70
62575;DHT22;70119;45.638;11.714;2023-08-07T06:31:06;30.00;43.70
62575;DHT22;70119;45.638;11.714;2023-08-07T06:33:32;30.10;43.80
62575;DHT22;70119;45.638;11.714;2023-08-07T06:35:59;30.10;43.90
62575;DHT22;70119;45.638;11.714;2023-08-07T06:38:25;30.10;44.00
62575;DHT22;70119;45.638;11.714;2023-08-07T06:40:51;30.10;44.10
62575;DHT22;70119;45.638;11.714;2023-08-07T06:43:17;30.10;44.10
62575;DHT22;70119;45.638;11.714;2023-08-07T06:45:43;30.10;44.00
62575;DHT22;70119;45.638;11.714;2023-08-07T06:48:09;30.10;43.90
62575;DHT22;70119;45.638;11.714;2023-08-07T06:50:35;30.20;43.80
62575;DHT22;70119;45.638;11.714;2023-08-07T06:53:00;30.10;43.70
62575;DHT22;70119;45.638;11.714;2023-08-07T06:55:26;30.20;43.70
62575;DHT22;70119;45.638;11.714;2023-08-07T06:57:53;30.20;43.70
62575;DHT22;70119;45.638;11.714;2023-08-07T07:00:19;30.20;43.80
62575;DHT22;70119;45.638;11.714;2023-08-07T07:02:45;30.20;43.90
62575;DHT22;70119;45.638;11.714;2023-08-07T07:05:11;30.30;43.80
62575;DHT22;70119;45.638;11.714;2023-08-07T07:07:37;30.30;43.70
62575;DHT22;70119;45.638;11.714;2023-08-07T07:10:04;30.30;43.60
62575;DHT22;70119;45.638;11.714;2023-08-07T07:12:30;30.30;43.50
62575;DHT22;70119;45.638;11.714;2023-08-07T07:14:55;30.30;43.50
62575;DHT22;70119;45.638;11.714;2023-08-07T07:17:21;30.40;43.50
62575;DHT22;70119;45.638;11.714;2023-08-07T07:19:47;30.30;43.40
62575;DHT22;70119;45.638;11.714;2023-08-07T07:22:13;30.30;43.40
62575;DHT22;70119;45.638;11.714;2023-08-07T07:24:39;30.30;43.40
62575;DHT22;70119;45.638;11.714;2023-08-07T07:27:05;30.30;43.40
62575;DHT22;70119;45.638;11.714;2023-08-07T07:29:32;30.40;43.40
62575;DHT22;70119;45.638;11.714;2023-08-07T07:31:57;30.40;43.40
62575;DHT22;70119;45.638;11.714;2023-08-07T07:34:23;30.40;43.40
62575;DHT22;70119;45.638;11.714;2023-08-07T07:36:49;30.40;43.40
62575;DHT22;70119;45.638;11.714;2023-08-07T07:39:16;30.40;43.40
62575;DHT22;70119;45.638;11.714;2023-08-07T07:41:42;30.40;43.30
62575;DHT22;70119;45.638;11.714;2023-08-07T07:44:08;30.40;43.30
62575;DHT22;70119;45.638;11.714;2023-08-07T07:46:34;30.40;43.30
62575;DHT22;70119;45.638;11.714;2023-08-07T07:49:00;30.40;43.30
62575;DHT22;70119;45.638;11.714;2023-08-07T07:51:28;30.40;43.30
62575;DHT22;70119;45.638;11.714;2023-08-07T07:53:54;30.40;43.30
62575;DHT22;70119;45.638;11.714;2023-08-07T07:56:20;30.40;43.30
62575;DHT22;70119;45.638;11.714;2023-08-07T07:58:46;30.40;43.30
62575;DHT22;70119;45.638;11.714;2023-08-07T08:01:12;30.40;43.30
62575;DHT22;70119;45.638;11.714;2023-08-07T08:03:39;30.40;43.30
62575;DHT22;70119;45.638;11.714;2023-08-07T08:06:05;30.40;43.30
62575;DHT22;70119;45.638;11.714;2023-08-07T08:08:31;30.40;43.30
62575;DHT22;70119;45.638;11.714;2023-08-07T08:10:56;30.40;43.40
62575;DHT22;70119;45.638;11.714;2023-08-07T08:13:22;30.40;43.40
62575;DHT22;70119;45.638;11.714;2023-08-07T08:15:50;30.50;43.40
62575;DHT22;70119;45.638;11.714;2023-08-07T08:18:16;30.50;43.30
62575;DHT22;70119;45.638;11.714;2023-08-07T08:20:42;30.40;43.50
62575;DHT22;70119;45.638;11.714;2023-08-07T08:23:08;30.50;43.50
62575;DHT22;70119;45.638;11.714;2023-08-07T08:25:34;30.50;43.50
62575;DHT22;70119;45.638;11.714;2023-08-07T08:28:00;30.40;43.60
62575;DHT22;70119;45.638;11.714;2023-08-07T08:30:26;30.40;43.60
62575;DHT22;70119;45.638;11.714;2023-08-07T08:32:52;30.40;43.60
62575;DHT22;70119;45.638;11.714;2023-08-07T08:35:18;30.50;43.70
62575;DHT22;70119;45.638;11.714;2023-08-07T08:37:43;30.50;43.50
62575;DHT22;70119;45.638;11.714;2023-08-07T08:40:10;30.50;43.50
62575;DHT22;70119;45.638;11.714;2023-08-07T08:42:39;30.50;43.50
62575;DHT22;70119;45.638;11.714;2023-08-07T08:45:08;30.40;43.30
62575;DHT22;70119;45.638;11.714;2023-08-07T08:47:36;30.50;43.20
62575;DHT22;70119;45.638;11.714;2023-08-07T08:50:13;30.50;43.10
62575;DHT22;70119;45.638;11.714;2023-08-07T08:52:42;30.50;42.90
62575;DHT22;70119;45.638;11.714;2023-08-07T08:55:10;30.40;42.70
62575;DHT22;70119;45.638;11.714;2023-08-07T08:57:38;30.50;42.70
62575;DHT22;70119;45.638;11.714;2023-08-07T09:00:08;30.40;42.70
62575;DHT22;70119;45.638;11.714;2023-08-07T09:02:44;30.50;42.70
62575;DHT22;70119;45.638;11.714;2023-08-07T09:05:10;30.40;42.90
62575;DHT22;70119;45.638;11.714;2023-08-07T09:07:37;30.40;43.10
62575;DHT22;70119;45.638;11.714;2023-08-07T09:10:03;30.40;43.10
62575;DHT22;70119;45.638;11.714;2023-08-07T09:12:32;30.40;43.30
62575;DHT22;70119;45.638;11.714;2023-08-07T09:15:01;30.50;43.20
62575;DHT22;70119;45.638;11.714;2023-08-07T09:17:29;30.50;42.80
62575;DHT22;70119;45.638;11.714;2023-08-07T09:20:00;30.40;43.10
62575;DHT22;70119;45.638;11.714;2023-08-07T09:22:31;30.40;43.20
62575;DHT22;70119;45.638;11.714;2023-08-07T09:25:03;30.40;43.30
62575;DHT22;70119;45.638;11.714;2023-08-07T09:27:33;30.40;43.10
62575;DHT22;70119;45.638;11.714;2023-08-07T09:29:59;30.50;43.00
62575;DHT22;70119;45.638;11.714;2023-08-07T09:32:25;30.50;42.80
62575;DHT22;70119;45.638;11.714;2023-08-07T09:34:51;30.50;42.70
62575;DHT22;70119;45.638;11.714;2023-08-07T09:37:20;30.40;42.70
62575;DHT22;70119;45.638;11.714;2023-08-07T09:39:46;30.40;42.80
62575;DHT22;70119;45.638;11.714;2023-08-07T09:42:16;30.50;43.00
62575;DHT22;70119;45.638;11.714;2023-08-07T09:44:43;30.50;43.00
62575;DHT22;70119;45.638;11.714;2023-08-07T09:47:15;30.50;42.90
62575;DHT22;70119;45.638;11.714;2023-08-07T09:49:42;30.40;43.10
62575;DHT22;70119;45.638;11.714;2023-08-07T09:52:09;30.50;42.70
62575;DHT22;70119;45.638;11.714;2023-08-07T09:54:36;30.50;42.40
62575;DHT22;70119;45.638;11.714;2023-08-07T09:57:03;30.40;42.20
62575;DHT22;70119;45.638;11.714;2023-08-07T09:59:29;30.40;42.00
62575;DHT22;70119;45.638;11.714;2023-08-07T10:01:55;30.40;42.00
62575;DHT22;70119;45.638;11.714;2023-08-07T10:04:22;30.30;41.90
62575;DHT22;70119;45.638;11.714;2023-08-07T10:06:48;30.30;41.90
62575;DHT22;70119;45.638;11.714;2023-08-07T10:09:14;30.30;41.90
62575;DHT22;70119;45.638;11.714;2023-08-07T10:11:41;30.30;42.00
62575;DHT22;70119;45.638;11.714;2023-08-07T10:14:09;30.30;41.90
62575;DHT22;70119;45.638;11.714;2023-08-07T10:16:35;30.20;41.90
62575;DHT22;70119;45.638;11.714;2023-08-07T10:19:06;30.20;41.90
62575;DHT22;70119;45.638;11.714;2023-08-07T10:21:38;30.20;41.90
62575;DHT22;70119;45.638;11.714;2023-08-07T10:24:06;30.20;42.00
62575;DHT22;70119;45.638;11.714;2023-08-07T10:26:35;30.20;42.00
62575;DHT22;70119;45.638;11.714;2023-08-07T10:29:04;30.20;42.00
62575;DHT22;70119;45.638;11.714;2023-08-07T10:31:32;30.10;42.10
62575;DHT22;70119;45.638;11.714;2023-08-07T10:33:59;30.20;42.10
62575;DHT22;70119;45.638;11.714;2023-08-07T10:36:35;30.10;41.90
62575;DHT22;70119;45.638;11.714;2023-08-07T10:39:11;30.10;42.00
62575;DHT22;70119;45.638;11.714;2023-08-07T10:41:45;30.10;42.20
62575;DHT22;70119;45.638;11.714;2023-08-07T10:44:47;30.10;42.20
62575;DHT22;70119;45.638;11.714;2023-08-07T10:47:13;30.10;42.10
62575;DHT22;70119;45.638;11.714;2023-08-07T10:49:40;30.10;42.20
62575;DHT22;70119;45.638;11.714;2023-08-07T10:52:11;30.10;42.30
62575;DHT22;70119;45.638;11.714;2023-08-07T10:54:41;30.10;42.30
62575;DHT22;70119;45.638;11.714;2023-08-07T10:57:11;30.10;42.20
62575;DHT22;70119;45.638;11.714;2023-08-07T10:59:38;30.00;42.40
62575;DHT22;70119;45.638;11.714;2023-08-07T11:02:10;30.10;42.60
62575;DHT22;70119;45.638;11.714;2023-08-07T11:04:37;30.00;42.70
62575;DHT22;70119;45.638;11.714;2023-08-07T11:07:03;30.00;42.90
62575;DHT22;70119;45.638;11.714;2023-08-07T11:09:29;30.00;43.00
62575;DHT22;70119;45.638;11.714;2023-08-07T11:11:55;30.00;43.00
62575;DHT22;70119;45.638;11.714;2023-08-07T11:14:20;30.00;42.90
62575;DHT22;70119;45.638;11.714;2023-08-07T11:16:48;30.00;42.70
62575;DHT22;70119;45.638;11.714;2023-08-07T11:19:15;30.00;42.50
62575;DHT22;70119;45.638;11.714;2023-08-07T11:21:42;30.00;42.40
62575;DHT22;70119;45.638;11.714;2023-08-07T11:24:09;30.00;42.20
62575;DHT22;70119;45.638;11.714;2023-08-07T11:26:35;29.90;42.00
62575;DHT22;70119;45.638;11.714;2023-08-07T11:29:01;29.90;42.00
62575;DHT22;70119;45.638;11.714;2023-08-07T11:31:27;30.00;41.90
62575;DHT22;70119;45.638;11.714;2023-08-07T11:33:57;29.90;41.80
62575;DHT22;70119;45.638;11.714;2023-08-07T11:36:24;29.90;41.70
62575;DHT22;70119;45.638;11.714;2023-08-07T11:38:50;29.90;41.70
62575;DHT22;70119;45.638;11.714;2023-08-07T11:41:17;29.90;41.60
62575;DHT22;70119;45.638;11.714;2023-08-07T11:43:44;29.90;41.60
62575;DHT22;70119;45.638;11.714;2023-08-07T11:46:12;29.90;41.50
62575;DHT22;70119;45.638;11.714;2023-08-07T11:48:40;29.90;41.50
62575;DHT22;70119;45.638;11.714;2023-08-07T11:51:06;29.90;41.40
62575;DHT22;70119;45.638;11.714;2023-08-07T11:53:34;29.90;41.30
62575;DHT22;70119;45.638;11.714;2023-08-07T11:56:11;29.90;41.20
62575;DHT22;70119;45.638;11.714;2023-08-07T11:58:43;29.90;40.90
62575;DHT22;70119;45.638;11.714;2023-08-07T12:01:13;29.80;40.70
62575;DHT22;70119;45.638;11.714;2023-08-07T12:03:42;29.80;40.50
62575;DHT22;70119;45.638;11.714;2023-08-07T12:06:09;29.90;40.50
62575;DHT22;70119;45.638;11.714;2023-08-07T12:08:39;29.80;40.50
62575;DHT22;70119;45.638;11.714;2023-08-07T12:11:09;29.80;40.50
62575;DHT22;70119;45.638;11.714;2023-08-07T12:13:41;29.80;40.40
62575;DHT22;70119;45.638;11.714;2023-08-07T12:16:07;29.80;40.40
62575;DHT22;70119;45.638;11.714;2023-08-07T12:18:38;29.90;40.50
62575;DHT22;70119;45.638;11.714;2023-08-07T12:21:15;29.80;40.50
62575;DHT22;70119;45.638;11.714;2023-08-07T12:23:41;29.80;40.30
62575;DHT22;70119;45.638;11.714;2023-08-07T12:26:07;29.80;40.20
62575;DHT22;70119;45.638;11.714;2023-08-07T12:28:37;29.80;40.30
62575;DHT22;70119;45.638;11.714;2023-08-07T12:31:03;29.90;40.30
62575;DHT22;70119;45.638;11.714;2023-08-07T12:33:30;29.80;40.30
62575;DHT22;70119;45.638;11.714;2023-08-07T12:36:02;29.80;40.20
62575;DHT22;70119;45.638;11.714;2023-08-07T12:38:32;29.80;40.30
62575;DHT22;70119;45.638;11.714;2023-08-07T12:41:01;29.80;40.30
62575;DHT22;70119;45.638;11.714;2023-08-07T12:43:33;29.80;40.30
62575;DHT22;70119;45.638;11.714;2023-08-07T12:46:01;29.80;40.30
62575;DHT22;70119;45.638;11.714;2023-08-07T12:48:28;29.80;40.40
62575;DHT22;70119;45.638;11.714;2023-08-07T12:50:55;29.80;40.40
62575;DHT22;70119;45.638;11.714;2023-08-07T12:53:21;29.80;40.40
62575;DHT22;70119;45.638;11.714;2023-08-07T12:55:47;29.80;40.30
62575;DHT22;70119;45.638;11.714;2023-08-07T12:58:13;29.80;40.10
62575;DHT22;70119;45.638;11.714;2023-08-07T13:00:41;29.70;39.90
62575;DHT22;70119;45.638;11.714;2023-08-07T13:03:07;29.70;40.20
62575;DHT22;70119;45.638;11.714;2023-08-07T13:05:32;29.70;40.70
62575;DHT22;70119;45.638;11.714;2023-08-07T13:07:58;29.70;41.00
62575;DHT22;70119;45.638;11.714;2023-08-07T13:10:24;29.70;41.20
62575;DHT22;70119;45.638;11.714;2023-08-07T13:12:53;29.80;41.30
62575;DHT22;70119;45.638;11.714;2023-08-07T13:15:21;29.80;41.50
62575;DHT22;70119;45.638;11.714;2023-08-07T13:17:47;29.80;41.50
62575;DHT22;70119;45.638;11.714;2023-08-07T13:20:13;29.80;41.60
62575;DHT22;70119;45.638;11.714;2023-08-07T13:22:41;29.80;41.70
62575;DHT22;70119;45.638;11.714;2023-08-07T13:25:08;29.80;41.80
62575;DHT22;70119;45.638;11.714;2023-08-07T13:27:35;29.80;41.90
62575;DHT22;70119;45.638;11.714;2023-08-07T13:30:02;29.80;42.00
62575;DHT22;70119;45.638;11.714;2023-08-07T13:32:28;29.90;42.10
62575;DHT22;70119;45.638;11.714;2023-08-07T13:34:55;29.90;42.20
62575;DHT22;70119;45.638;11.714;2023-08-07T13:37:21;29.90;42.30
62575;DHT22;70119;45.638;11.714;2023-08-07T13:39:47;29.90;42.40
62575;DHT22;70119;45.638;11.714;2023-08-07T13:42:18;29.90;42.60
62575;DHT22;70119;45.638;11.714;2023-08-07T13:44:44;29.90;42.70
62575;DHT22;70119;45.638;11.714;2023-08-07T13:47:10;29.90;42.80
62575;DHT22;70119;45.638;11.714;2023-08-07T13:49:37;30.00;42.80
62575;DHT22;70119;45.638;11.714;2023-08-07T13:52:03;30.00;42.90
62575;DHT22;70119;45.638;11.714;2023-08-07T13:54:29;30.00;42.90
62575;DHT22;70119;45.638;11.714;2023-08-07T13:56:55;30.00;42.90
62575;DHT22;70119;45.638;11.714;2023-08-07T13:59:21;30.00;42.90
62575;DHT22;70119;45.638;11.714;2023-08-07T14:01:47;30.00;43.00
62575;DHT22;70119;45.638;11.714;2023-08-07T14:04:12;30.00;42.80
62575;DHT22;70119;45.638;11.714;2023-08-07T14:06:40;30.00;42.70
62575;DHT22;70119;45.638;11.714;2023-08-07T14:09:07;30.00;42.50
62575;DHT22;70119;45.638;11.714;2023-08-07T14:11:35;30.00;42.40
62575;DHT22;70119;45.638;11.714;2023-08-07T14:14:01;30.10;42.20
62575;DHT22;70119;45.638;11.714;2023-08-07T14:16:27;30.10;42.10
62575;DHT22;70119;45.638;11.714;2023-08-07T14:18:53;30.10;42.00
62575;DHT22;70119;45.638;11.714;2023-08-07T14:21:19;30.10;41.90
62575;DHT22;70119;45.638;11.714;2023-08-07T14:23:45;30.10;41.90
62575;DHT22;70119;45.638;11.714;2023-08-07T14:26:12;30.10;41.90
62575;DHT22;70119;45.638;11.714;2023-08-07T14:28:39;30.10;41.90
62575;DHT22;70119;45.638;11.714;2023-08-07T14:31:10;30.10;42.00
62575;DHT22;70119;45.638;11.714;2023-08-07T14:33:36;30.10;42.00
62575;DHT22;70119;45.638;11.714;2023-08-07T14:36:02;30.10;42.00
62575;DHT22;70119;45.638;11.714;2023-08-07T14:38:29;30.10;42.00
62575;DHT22;70119;45.638;11.714;2023-08-07T14:40:55;30.10;42.10
62575;DHT22;70119;45.638;11.714;2023-08-07T14:43:22;30.20;42.10
62575;DHT22;70119;45.638;11.714;2023-08-07T14:45:48;30.20;42.10
62575;DHT22;70119;45.638;11.714;2023-08-07T14:48:15;30.20;42.10
62575;DHT22;70119;45.638;11.714;2023-08-07T14:50:41;30.20;42.10
62575;DHT22;70119;45.638;11.714;2023-08-07T14:53:07;30.20;42.00
62575;DHT22;70119;45.638;11.714;2023-08-07T14:55:33;30.20;41.90
62575;DHT22;70119;45.638;11.714;2023-08-07T14:57:59;30.20;41.80
62575;DHT22;70119;45.638;11.714;2023-08-07T15:00:26;30.20;41.60
62575;DHT22;70119;45.638;11.714;2023-08-07T15:02:51;30.20;41.70
62575;DHT22;70119;45.638;11.714;2023-08-07T15:05:17;30.20;41.90
62575;DHT22;70119;45.638;11.714;2023-08-07T15:07:44;30.20;41.80
62575;DHT22;70119;45.638;11.714;2023-08-07T15:10:10;30.20;41.60
62575;DHT22;70119;45.638;11.714;2023-08-07T15:12:36;30.20;41.10
62575;DHT22;70119;45.638;11.714;2023-08-07T15:15:02;30.20;40.80
62575;DHT22;70119;45.638;11.714;2023-08-07T15:17:28;30.20;40.70
62575;DHT22;70119;45.638;11.714;2023-08-07T15:19:54;30.20;40.50